Time;durP1;ratioP1;P1;durP2;ratioP2;P2;SDS_P1;SDS_P2;PMS_P1;PMS_P2;Temp;Humidity;BMP_temperature;BMP_pressure;BME280_temperature;BME280_humidity;BME280_pressure;Samples;Min_cycle;Max_cycle;Signal;HPM_P1;HPM_P2
2023/07/21 00:00:28;;;;;;;4.05;1.70;;;31.10;99.90;;;;;;5090727;28;20214;-86
2023/07/21 00:02:59;;;;;;;2.83;1.63;;;31.10;99.90;;;;;;5090441;28;20240;-86
2023/07/21 00:05:29;;;;;;;4.85;1.63;;;31.20;99.90;;;;;;5092011;28;20231;-86
2023/07/21 00:08:00;;;;;;;4.53;1.30;;;31.30;99.90;;;;;;5090939;28;20328;-86
2023/07/21 00:10:32;;;;;;;15.43;1.90;;;31.40;99.90;;;;;;5091473;28;20267;-86
2023/07/21 00:13:03;;;;;;;9.45;1.67;;;31.10;99.90;;;;;;5091299;28;20229;-86
2023/07/21 00:15:34;;;;;;;2.35;1.30;;;31.30;99.90;;;;;;5091997;28;20294;-86
2023/07/21 00:18:05;;;;;;;6.78;1.70;;;31.50;99.90;;;;;;5092253;28;20290;-86
2023/07/21 00:20:36;;;;;;;18.88;2.25;;;31.70;99.90;;;;;;5086004;28;20210;-85
2023/07/21 00:23:08;;;;;;;4.72;1.55;;;31.20;99.90;;;;;;5090692;28;20218;-86
2023/07/21 00:25:41;;;;;;;13.63;1.90;;;31.10;99.90;;;;;;5090606;28;20227;-88
2023/07/21 00:28:11;;;;;;;2.42;1.48;;;31.40;99.90;;;;;;5090889;28;20218;-89
2023/07/21 00:30:42;;;;;;;4.07;1.70;;;31.60;99.90;;;;;;5092760;28;20199;-88
2023/07/21 00:33:13;;;;;;;2.75;1.52;;;31.50;99.90;;;;;;5085256;28;20210;-83
2023/07/21 00:35:44;;;;;;;7.65;1.75;;;31.30;99.90;;;;;;5090992;28;20233;-84
2023/07/21 00:38:15;;;;;;;5.55;1.73;;;31.60;99.90;;;;;;5087733;28;20207;-82
2023/07/21 00:40:47;;;;;;;1.40;1.30;;;31.80;99.90;;;;;;5091253;28;20211;-83
2023/07/21 00:43:18;;;;;;;4.25;1.67;;;31.50;99.90;;;;;;5090138;28;20679;-83
2023/07/21 00:45:50;;;;;;;5.03;1.40;;;31.00;99.90;;;;;;5091806;28;20276;-83
2023/07/21 00:48:21;;;;;;;3.45;1.45;;;31.20;99.90;;;;;;5091709;28;20207;-84
2023/07/21 00:50:53;;;;;;;2.20;1.23;;;30.90;99.90;;;;;;5091590;28;20199;-83
2023/07/21 00:53:26;;;;;;;2.05;1.60;;;31.00;99.90;;;;;;5091518;28;20214;-83
2023/07/21 00:55:58;;;;;;;3.45;1.35;;;31.10;99.90;;;;;;5091699;28;20203;-83
2023/07/21 00:58:32;;;;;;;1.92;1.45;;;31.00;99.90;;;;;;5091408;28;20302;-82
2023/07/21 01:01:02;;;;;;;2.33;1.40;;;31.10;99.90;;;;;;5090563;28;20294;-83
2023/07/21 01:03:35;;;;;;;4.25;1.45;;;31.20;99.90;;;;;;5091614;28;20214;-84
2023/07/21 01:06:09;;;;;;;3.25;1.65;;;31.50;99.90;;;;;;5091637;28;20223;-83
2023/07/21 01:08:40;;;;;;;4.10;1.70;;;31.80;99.90;;;;;;5095419;28;20291;-84
2023/07/21 01:11:13;;;;;;;1.80;1.20;;;32.40;99.90;;;;;;5094110;28;20206;-83
2023/07/21 01:13:44;;;;;;;2.15;1.20;;;32.00;99.90;;;;;;5094875;28;20203;-83
2023/07/21 01:16:16;;;;;;;2.13;1.35;;;31.90;99.90;;;;;;5095003;28;20677;-83
2023/07/21 01:18:47;;;;;;;3.58;1.75;;;31.80;99.90;;;;;;5094879;28;20293;-83
2023/07/21 01:21:30;;;;;;;3.08;1.30;;;32.30;99.90;;;;;;5093869;28;20207;-83
2023/07/21 01:24:10;;;;;;;3.63;1.73;;;32.80;99.90;;;;;;5095015;28;20647;-82
2023/07/21 01:26:43;;;;;;;2.50;1.45;;;32.50;99.80;;;;;;5095007;28;20314;-82
2023/07/21 01:29:15;;;;;;;3.25;1.25;;;32.90;99.90;;;;;;5094967;28;20211;-85
2023/07/21 01:31:48;;;;;;;6.30;1.58;;;33.10;99.60;;;;;;5094083;28;20213;-83
2023/07/21 01:34:19;;;;;;;8.45;1.50;;;33.30;99.30;;;;;;5095017;28;20203;-83
2023/07/21 01:36:51;;;;;;;8.05;1.40;;;33.40;97.80;;;;;;5095030;28;20214;-83
2023/07/21 01:39:22;;;;;;;3.53;1.27;;;33.50;98.60;;;;;;5094779;28;20246;-83
2023/07/21 01:41:55;;;;;;;2.38;1.40;;;33.70;98.10;;;;;;5094422;28;20225;-84
2023/07/21 01:44:25;;;;;;;5.45;1.27;;;34.00;98.90;;;;;;5094592;28;20203;-82
2023/07/21 01:46:56;;;;;;;3.78;1.27;;;33.90;98.30;;;;;;5094773;28;20230;-83
2023/07/21 01:49:28;;;;;;;4.00;1.20;;;33.60;97.10;;;;;;5094915;28;20574;-84
2023/07/21 01:51:59;;;;;;;2.17;1.20;;;33.50;98.20;;;;;;5094400;28;20218;-84
2023/07/21 01:54:35;;;;;;;1.30;1.20;;;33.40;97.60;;;;;;5095192;28;20210;-84
2023/07/21 01:57:11;;;;;;;1.98;1.33;;;33.00;98.60;;;;;;5094149;28;20294;-82
2023/07/21 01:59:47;;;;;;;1.55;1.25;;;31.70;98.50;;;;;;5093835;28;20694;-82
2023/07/21 02:02:20;;;;;;;5.22;1.10;;;31.20;99.00;;;;;;5093157;28;20203;-82
2023/07/21 02:04:54;;;;;;;3.80;1.20;;;30.70;99.90;;;;;;5094221;28;20199;-82
2023/07/21 02:07:25;;;;;;;3.72;1.40;;;30.20;99.90;;;;;;5094031;28;20694;-82
2023/07/21 02:09:56;;;;;;;1.98;1.40;;;29.90;99.90;;;;;;5092792;28;20215;-80
2023/07/21 02:12:29;;;;;;;3.28;1.20;;;29.60;99.90;;;;;;5089063;28;20264;-81
2023/07/21 02:14:59;;;;;;;4.63;1.10;;;29.30;99.90;;;;;;5079946;28;20207;-81
2023/07/21 02:17:30;;;;;;;4.35;1.30;;;29.10;99.90;;;;;;5078796;28;20203;-82
2023/07/21 02:20:07;;;;;;;2.95;1.25;;;28.80;99.90;;;;;;5083107;28;20287;-83
2023/07/21 02:22:43;;;;;;;3.05;1.30;;;28.70;99.90;;;;;;5090434;28;20249;-82
2023/07/21 02:25:15;;;;;;;3.28;1.45;;;28.60;99.90;;;;;;5082797;28;20210;-81
2023/07/21 02:27:48;;;;;;;1.52;1.10;;;28.50;99.90;;;;;;5078695;28;20714;-82
2023/07/21 02:30:18;;;;;;;2.83;1.17;;;28.20;99.90;;;;;;5089839;28;20674;-82
2023/07/21 02:32:49;;;;;;;1.33;0.90;;;28.10;99.90;;;;;;5090834;28;20612;-81
2023/07/21 02:35:20;;;;;;;1.25;1.00;;;28.00;99.90;;;;;;5091049;28;20220;-83
2023/07/21 02:37:51;;;;;;;2.95;1.33;;;27.80;99.90;;;;;;5091817;28;20294;-82
2023/07/21 02:40:22;;;;;;;1.27;1.13;;;27.70;99.90;;;;;;5085213;28;20204;-82
2023/07/21 02:42:54;;;;;;;3.00;1.20;;;27.50;99.90;;;;;;5076606;28;20604;-82
2023/07/21 02:45:25;;;;;;;1.65;1.17;;;27.40;99.90;;;;;;5085514;28;20627;-82
2023/07/21 02:47:55;;;;;;;3.58;1.35;;;27.30;99.90;;;;;;5078908;28;20254;-82
2023/07/21 02:50:28;;;;;;;2.50;1.23;;;27.20;99.90;;;;;;5074994;28;20215;-81
2023/07/21 02:52:59;;;;;;;3.97;1.40;;;27.10;99.90;;;;;;5079714;28;20213;-82
2023/07/21 02:55:30;;;;;;;2.73;1.33;;;27.00;99.90;;;;;;5083580;28;20199;-81
2023/07/21 02:58:03;;;;;;;2.33;1.40;;;26.90;99.90;;;;;;5086906;28;20660;-82
2023/07/21 03:00:34;;;;;;;2.30;1.20;;;26.80;99.90;;;;;;5084547;28;20214;-83
2023/07/21 03:03:06;;;;;;;3.37;0.90;;;26.70;99.90;;;;;;5086465;28;20206;-82
2023/07/21 03:05:38;;;;;;;1.80;0.93;;;26.60;99.90;;;;;;5088672;28;20199;-81
2023/07/21 03:08:08;;;;;;;5.33;1.57;;;26.50;99.90;;;;;;5080491;28;20236;-82
2023/07/21 03:10:40;;;;;;;2.27;1.20;;;26.40;99.90;;;;;;5079434;28;20202;-81
2023/07/21 03:13:13;;;;;;;3.30;1.50;;;26.40;99.90;;;;;;5073983;28;20669;-81
2023/07/21 03:15:45;;;;;;;2.37;1.40;;;26.30;99.90;;;;;;5079523;28;20203;-81
2023/07/21 03:18:16;;;;;;;2.10;1.33;;;26.20;99.90;;;;;;5092801;28;20211;-83
2023/07/21 03:20:49;;;;;;;1.93;1.30;;;26.10;99.90;;;;;;5092106;28;20332;-82
2023/07/21 03:23:19;;;;;;;3.20;1.40;;;26.00;99.90;;;;;;5091487;28;20210;-83
2023/07/21 03:25:50;;;;;;;4.00;1.53;;;26.00;99.90;;;;;;5092211;28;20207;-82
2023/07/21 03:28:23;;;;;;;3.60;1.70;;;25.90;99.90;;;;;;5092026;28;20245;-82
2023/07/21 03:31:03;;;;;;;1.83;1.47;;;25.80;99.90;;;;;;5091277;28;20206;-83
2023/07/21 03:33:33;;;;;;;4.47;1.60;;;25.70;99.90;;;;;;5091842;28;20752;-82
2023/07/21 03:36:06;;;;;;;2.27;1.40;;;25.60;99.90;;;;;;5092258;28;20726;-83
2023/07/21 03:38:37;;;;;;;1.93;1.70;;;25.50;99.90;;;;;;5092182;28;20207;-81
2023/07/21 03:41:09;;;;;;;1.97;1.60;;;25.50;99.90;;;;;;5091370;28;20210;-82
2023/07/21 03:43:42;;;;;;;1.97;1.77;;;25.30;99.90;;;;;;5092071;28;20215;-82
2023/07/21 03:46:13;;;;;;;2.63;1.80;;;25.20;99.90;;;;;;5097934;28;20213;-83
2023/07/21 03:48:44;;;;;;;3.63;1.70;;;25.00;99.90;;;;;;5105661;28;20234;-83
2023/07/21 03:51:15;;;;;;;2.27;1.50;;;25.00;99.90;;;;;;5108338;28;20245;-82
2023/07/21 03:53:46;;;;;;;2.07;1.57;;;24.80;99.90;;;;;;5108552;28;20203;-82
2023/07/21 03:56:18;;;;;;;5.10;1.80;;;24.80;99.90;;;;;;5109499;28;20229;-81
2023/07/21 03:58:53;;;;;;;2.63;1.60;;;24.60;99.90;;;;;;5108425;28;20210;-83
2023/07/21 04:01:24;;;;;;;3.13;2.00;;;24.50;99.90;;;;;;5103396;28;20206;-82
2023/07/21 04:03:55;;;;;;;3.00;1.30;;;24.40;99.90;;;;;;5091879;28;20278;-80
2023/07/21 04:06:26;;;;;;;2.23;1.57;;;24.30;99.90;;;;;;5092621;28;20614;-82
2023/07/21 04:08:57;;;;;;;3.80;1.33;;;24.20;99.90;;;;;;5092350;28;20261;-82
2023/07/21 04:11:28;;;;;;;1.90;1.60;;;24.20;99.90;;;;;;5091105;28;20199;-83
2023/07/21 04:14:01;;;;;;;4.33;1.67;;;24.10;99.90;;;;;;5091483;28;20203;-82
2023/07/21 04:16:32;;;;;;;4.07;1.80;;;24.00;99.90;;;;;;5096546;28;20299;-82
2023/07/21 04:19:03;;;;;;;6.00;1.93;;;23.90;99.90;;;;;;5102377;28;20205;-81
2023/07/21 04:21:34;;;;;;;3.20;1.60;;;23.80;99.90;;;;;;5093553;28;20203;-82
2023/07/21 04:24:05;;;;;;;2.30;1.60;;;23.70;99.90;;;;;;5089553;28;20672;-82
2023/07/21 04:26:36;;;;;;;1.67;1.37;;;23.70;99.90;;;;;;5080948;28;20206;-80
2023/07/21 04:29:08;;;;;;;3.03;1.60;;;23.60;99.90;;;;;;5075424;28;20249;-81
2023/07/21 04:31:54;;;;;;;5.00;2.00;;;23.50;99.90;;;;;;5086452;28;20199;-80
2023/07/21 04:34:25;;;;;;;4.13;1.90;;;23.50;99.90;;;;;;5090837;28;20285;-80
2023/07/21 04:36:55;;;;;;;4.87;1.90;;;23.50;99.90;;;;;;5079778;28;20604;-81
2023/07/21 04:39:26;;;;;;;2.43;1.67;;;23.50;99.90;;;;;;5076249;28;20203;-81
2023/07/21 04:41:57;;;;;;;2.20;1.67;;;23.40;99.90;;;;;;5089035;28;20206;-81
2023/07/21 04:44:29;;;;;;;3.40;1.80;;;23.30;99.90;;;;;;5099110;28;20309;-81
2023/07/21 04:47:00;;;;;;;4.70;1.80;;;23.30;99.90;;;;;;5098656;28;20226;-82
2023/07/21 04:49:31;;;;;;;4.93;2.30;;;23.20;99.90;;;;;;5098576;28;20235;-83
2023/07/21 04:52:02;;;;;;;4.13;1.80;;;23.20;99.90;;;;;;5107316;28;20203;-80
2023/07/21 04:54:34;;;;;;;3.00;1.57;;;23.10;99.90;;;;;;5100992;28;20215;-82
2023/07/21 04:57:05;;;;;;;4.97;1.77;;;23.10;99.90;;;;;;5098774;28;20586;-82
2023/07/21 04:59:37;;;;;;;5.10;2.13;;;23.00;99.90;;;;;;5083450;28;20694;-82
2023/07/21 05:02:08;;;;;;;3.07;1.70;;;22.90;99.90;;;;;;5081497;28;20199;-80
2023/07/21 05:04:39;;;;;;;2.77;1.60;;;22.90;99.90;;;;;;5087642;28;20282;-80
2023/07/21 05:07:10;;;;;;;2.57;1.70;;;22.90;99.90;;;;;;5083980;28;20208;-82
2023/07/21 05:09:41;;;;;;;11.83;3.20;;;22.80;99.90;;;;;;5094464;28;20281;-81
2023/07/21 05:12:11;;;;;;;6.30;2.50;;;22.80;99.90;;;;;;5093557;28;20198;-82
2023/07/21 05:14:45;;;;;;;8.83;3.80;;;22.70;99.90;;;;;;5089814;28;20211;-82
2023/07/21 05:17:16;;;;;;;4.00;2.40;;;22.50;99.90;;;;;;5080248;28;20257;-81
2023/07/21 05:19:47;;;;;;;6.10;2.77;;;22.40;99.90;;;;;;5088411;28;20239;-80
2023/07/21 05:22:18;;;;;;;7.27;2.20;;;22.30;99.90;;;;;;5084761;28;20211;-82
2023/07/21 05:24:52;;;;;;;7.40;1.80;;;22.20;99.90;;;;;;5091651;28;20195;-81
2023/07/21 05:27:23;;;;;;;4.87;2.13;;;22.00;99.90;;;;;;5091759;28;20195;-81
2023/07/21 05:29:55;;;;;;;3.73;1.90;;;21.90;99.90;;;;;;5088024;28;20757;-81
2023/07/21 05:32:26;;;;;;;4.50;1.70;;;21.90;99.90;;;;;;5086793;28;20202;-82
2023/07/21 05:34:57;;;;;;;3.60;1.90;;;21.80;99.90;;;;;;5093888;28;20241;-81
2023/07/21 05:37:30;;;;;;;2.93;1.90;;;21.80;99.90;;;;;;5091499;28;20199;-80
2023/07/21 05:40:01;;;;;;;3.67;1.50;;;21.70;99.90;;;;;;5092743;28;20201;-80
2023/07/21 05:42:32;;;;;;;4.13;1.63;;;21.70;99.90;;;;;;5093694;28;20282;-81
2023/07/21 05:45:06;;;;;;;4.30;1.87;;;21.70;99.90;;;;;;5093827;28;20292;-81
2023/07/21 05:47:37;;;;;;;4.03;1.67;;;21.60;99.90;;;;;;5092382;28;20202;-81
2023/07/21 05:50:09;;;;;;;1.70;1.53;;;21.50;99.90;;;;;;5090490;28;20234;-81
2023/07/21 05:52:39;;;;;;;3.67;1.90;;;21.40;99.90;;;;;;5092146;28;20295;-80
2023/07/21 05:55:10;;;;;;;4.60;1.70;;;21.30;99.90;;;;;;5093822;28;20278;-81
2023/07/21 05:57:42;;;;;;;1.67;1.50;;;21.30;99.90;;;;;;5093718;28;20239;-80
2023/07/21 06:00:15;;;;;;;4.10;1.50;;;21.30;99.90;;;;;;5093861;28;20211;-81
2023/07/21 06:02:46;;;;;;;3.03;1.70;;;21.30;99.90;;;;;;5092120;28;20213;-81
2023/07/21 06:05:17;;;;;;;3.77;1.37;;;21.20;99.90;;;;;;5089739;28;20281;-81
2023/07/21 06:07:49;;;;;;;4.90;2.10;;;21.20;99.90;;;;;;5073533;28;20207;-82
2023/07/21 06:10:20;;;;;;;2.27;1.67;;;21.20;99.90;;;;;;5081300;28;20294;-80
2023/07/21 06:12:51;;;;;;;2.07;1.60;;;21.20;99.90;;;;;;5092513;28;20207;-81
2023/07/21 06:15:27;;;;;;;2.63;1.63;;;21.10;99.90;;;;;;5093312;28;20217;-81
2023/07/21 06:17:57;;;;;;;2.67;1.20;;;21.00;99.90;;;;;;5093156;28;20257;-80
2023/07/21 06:20:28;;;;;;;1.40;1.10;;;20.90;99.90;;;;;;5093226;28;20234;-81
2023/07/21 06:23:00;;;;;;;5.13;1.40;;;20.90;99.90;;;;;;5091910;28;20242;-81
2023/07/21 06:25:31;;;;;;;2.53;1.23;;;20.80;99.90;;;;;;5092079;28;20257;-83
2023/07/21 06:28:02;;;;;;;4.70;1.20;;;20.80;99.90;;;;;;5092889;28;20207;-82
2023/07/21 06:30:35;;;;;;;4.10;1.40;;;20.80;99.90;;;;;;5093700;28;20309;-83
2023/07/21 06:33:06;;;;;;;4.30;1.10;;;20.70;99.90;;;;;;5091625;28;20246;-83
2023/07/21 06:35:37;;;;;;;2.57;1.30;;;20.70;99.90;;;;;;5095594;28;20196;-91
2023/07/21 06:38:08;;;;;;;1.40;1.30;;;20.60;99.90;;;;;;5096458;28;20222;-90
2023/07/21 06:40:39;;;;;;;2.07;1.20;;;20.60;99.90;;;;;;5099955;28;20207;-90
2023/07/21 06:43:10;;;;;;;3.37;1.20;;;20.60;99.90;;;;;;5095999;28;20198;-92
2023/07/21 06:45:42;;;;;;;1.30;1.10;;;20.50;99.90;;;;;;5096736;28;20647;-91
2023/07/21 06:48:13;;;;;;;1.43;1.30;;;20.50;99.90;;;;;;5096165;28;20286;-91
2023/07/21 06:50:44;;;;;;;1.43;1.20;;;20.50;99.90;;;;;;5096082;28;20245;-90
2023/07/21 06:53:17;;;;;;;1.30;1.20;;;20.40;99.90;;;;;;5074715;28;20211;-92
2023/07/21 06:55:51;;;;;;;1.57;1.20;;;20.40;99.90;;;;;;5090858;28;20203;-91
2023/07/21 06:58:22;;;;;;;1.83;1.10;;;20.30;99.90;;;;;;5096497;28;20252;-92
2023/07/21 07:00:57;;;;;;;1.87;1.10;;;20.20;99.90;;;;;;5095448;28;20203;-96
2023/07/21 07:03:29;;;;;;;1.73;1.30;;;20.10;99.90;;;;;;5097105;28;20203;-92
2023/07/21 07:06:00;;;;;;;2.33;1.70;;;20.00;99.90;;;;;;5095400;28;20206;-91
2023/07/21 07:08:31;;;;;;;1.90;1.20;;;20.10;99.90;;;;;;5096642;28;20211;-90
2023/07/21 07:11:02;;;;;;;1.43;1.23;;;19.90;99.90;;;;;;5095063;28;20290;-91
2023/07/21 07:13:33;;;;;;;1.97;1.30;;;19.90;99.90;;;;;;5095071;28;20206;-91
2023/07/21 07:16:06;;;;;;;2.70;1.33;;;19.70;99.90;;;;;;5094878;28;20203;-90
2023/07/21 07:18:37;;;;;;;3.27;1.50;;;19.60;99.90;;;;;;5095795;28;20203;-91
2023/07/21 07:21:08;;;;;;;2.93;1.23;;;19.60;99.90;;;;;;5095051;28;20216;-90
2023/07/21 07:23:38;;;;;;;1.73;1.30;;;19.60;99.90;;;;;;5096361;28;20210;-91
2023/07/21 07:26:09;;;;;;;2.77;1.60;;;19.50;99.90;;;;;;5095575;28;20245;-90
2023/07/21 07:28:40;;;;;;;2.53;1.47;;;19.40;99.90;;;;;;5096407;28;20571;-90
2023/07/21 07:31:12;;;;;;;1.60;1.30;;;19.40;99.90;;;;;;5094312;28;20230;-90
2023/07/21 07:33:44;;;;;;;1.43;1.30;;;19.40;99.90;;;;;;5094985;28;20557;-90
2023/07/21 07:36:16;;;;;;;2.20;1.30;;;19.30;99.90;;;;;;5095281;28;20205;-90
2023/07/21 07:38:47;;;;;;;3.53;1.60;;;19.30;99.90;;;;;;5096565;28;20247;-90
2023/07/21 07:41:18;;;;;;;3.10;1.37;;;19.30;99.90;;;;;;5094670;28;20205;-91
2023/07/21 07:43:49;;;;;;;2.60;1.57;;;19.20;99.90;;;;;;5095712;28;20209;-91
2023/07/21 07:46:22;;;;;;;3.20;1.73;;;19.20;99.90;;;;;;5095818;28;20214;-92
2023/07/21 07:48:52;;;;;;;1.60;1.30;;;19.10;99.90;;;;;;5095246;28;20218;-91
2023/07/21 07:51:25;;;;;;;2.30;1.60;;;19.10;99.90;;;;;;5095319;28;20216;-90
2023/07/21 07:53:57;;;;;;;3.07;1.63;;;18.90;99.90;;;;;;5098271;28;20233;-91
2023/07/21 07:56:28;;;;;;;2.03;1.83;;;18.90;99.90;;;;;;5096102;28;20199;-90
2023/07/21 07:58:59;;;;;;;2.30;1.77;;;18.90;99.90;;;;;;5095725;28;20210;-90
2023/07/21 08:01:31;;;;;;;1.73;1.50;;;18.80;99.90;;;;;;5094694;28;20207;-91
2023/07/21 08:04:02;;;;;;;2.20;1.80;;;18.80;99.90;;;;;;5095674;28;20285;-91
2023/07/21 08:06:33;;;;;;;2.10;1.43;;;18.80;99.90;;;;;;5096371;28;20308;-90
2023/07/21 08:09:03;;;;;;;2.30;1.97;;;18.70;99.90;;;;;;5095994;28;20203;-89
2023/07/21 08:11:34;;;;;;;2.10;1.70;;;18.70;99.90;;;;;;5095782;28;20209;-90
2023/07/21 08:14:06;;;;;;;2.23;1.90;;;18.70;99.90;;;;;;5096816;28;20199;-91
2023/07/21 08:16:38;;;;;;;3.30;1.60;;;18.60;99.90;;;;;;5098895;28;20207;-90
2023/07/21 08:19:09;;;;;;;3.90;1.80;;;18.70;99.90;;;;;;5101514;28;20203;-90
2023/07/21 08:21:40;;;;;;;3.13;1.90;;;18.60;99.90;;;;;;5099618;28;20290;-89
2023/07/21 08:24:11;;;;;;;3.30;2.10;;;18.60;99.90;;;;;;5101406;28;20210;-90
2023/07/21 08:26:43;;;;;;;2.40;1.93;;;18.50;99.90;;;;;;5100925;28;20234;-86
2023/07/21 08:29:14;;;;;;;2.20;2.00;;;18.40;99.90;;;;;;5101558;28;20203;-91
2023/07/21 08:31:47;;;;;;;2.30;2.00;;;18.20;99.90;;;;;;5102573;28;20198;-91
2023/07/21 08:34:18;;;;;;;2.83;2.13;;;18.00;99.90;;;;;;5115694;28;20206;-92
2023/07/21 08:36:48;;;;;;;4.90;2.30;;;17.90;99.90;;;;;;5116775;28;20270;-91
2023/07/21 08:39:24;;;;;;;5.13;2.43;;;17.90;99.90;;;;;;5109590;28;20207;-91
2023/07/21 08:41:56;;;;;;;3.57;2.60;;;17.70;99.90;;;;;;5103260;28;20667;-91
2023/07/21 08:44:29;;;;;;;4.20;2.40;;;17.60;99.90;;;;;;5102847;28;20290;-90
2023/07/21 08:47:01;;;;;;;3.93;2.60;;;17.60;99.90;;;;;;5101027;28;20203;-91
2023/07/21 08:49:32;;;;;;;4.43;2.57;;;17.50;99.90;;;;;;5120949;28;20187;-91
2023/07/21 08:52:03;;;;;;;5.13;2.60;;;17.60;99.90;;;;;;5120445;28;20233;-90
2023/07/21 08:54:34;;;;;;;3.53;2.10;;;17.60;99.90;;;;;;5113396;28;20199;-92
2023/07/21 08:57:05;;;;;;;4.10;2.43;;;17.60;99.90;;;;;;5098991;28;20379;-91
2023/07/21 08:59:36;;;;;;;3.50;2.30;;;17.60;99.90;;;;;;5098905;28;20271;-91
2023/07/21 09:02:09;;;;;;;2.53;2.30;;;17.60;99.90;;;;;;5098206;28;20203;-90
2023/07/21 09:04:40;;;;;;;4.33;2.23;;;17.40;99.90;;;;;;5098488;28;20281;-89
2023/07/21 09:07:11;;;;;;;5.30;2.53;;;17.40;99.90;;;;;;5098003;28;20210;-90
2023/07/21 09:09:51;;;;;;;5.67;2.73;;;17.40;99.90;;;;;;5097950;28;20214;-91
2023/07/21 09:12:22;;;;;;;4.77;2.37;;;17.40;99.90;;;;;;5097433;28;20565;-91
2023/07/21 09:14:52;;;;;;;3.90;2.37;;;17.40;99.90;;;;;;5098051;28;20285;-90
2023/07/21 09:17:25;;;;;;;5.03;2.53;;;17.40;99.90;;;;;;5099372;28;20285;-90
2023/07/21 09:19:58;;;;;;;5.87;2.60;;;17.30;99.90;;;;;;5098063;28;20240;-90
2023/07/21 09:22:29;;;;;;;4.50;2.60;;;17.20;99.90;;;;;;5098471;28;20624;-90
2023/07/21 09:24:59;;;;;;;4.37;2.87;;;17.20;99.90;;;;;;5098051;28;20604;-91
2023/07/21 09:27:30;;;;;;;4.33;2.60;;;17.10;99.90;;;;;;5096715;28;20289;-90
2023/07/21 09:30:02;;;;;;;3.83;2.83;;;17.10;99.90;;;;;;5097526;28;20210;-89
2023/07/21 09:32:41;;;;;;;4.33;2.57;;;17.10;99.90;;;;;;5096970;28;20203;-90
2023/07/21 09:35:12;;;;;;;5.17;2.90;;;17.00;99.90;;;;;;5097504;28;20209;-90
2023/07/21 09:37:43;;;;;;;4.07;2.43;;;16.90;99.90;;;;;;5099087;28;20203;-91
2023/07/21 09:40:14;;;;;;;4.03;2.70;;;16.80;99.90;;;;;;5100778;28;20237;-91
2023/07/21 09:42:45;;;;;;;3.60;2.80;;;16.80;99.90;;;;;;5098122;28;20369;-90
2023/07/21 09:45:18;;;;;;;3.43;2.70;;;16.80;99.90;;;;;;5099495;28;20246;-91
2023/07/21 09:47:52;;;;;;;5.13;2.47;;;16.70;99.90;;;;;;5098018;28;20290;-90
2023/07/21 09:50:24;;;;;;;4.90;3.10;;;16.60;99.90;;;;;;5097413;28;20635;-90
2023/07/21 09:52:56;;;;;;;6.27;2.67;;;16.60;99.90;;;;;;5099550;28;20563;-91
2023/07/21 09:55:31;;;;;;;4.23;2.53;;;16.60;99.90;;;;;;5098085;28;20206;-90
2023/07/21 09:58:04;;;;;;;6.17;3.10;;;16.50;99.90;;;;;;5098957;28;20570;-90
2023/07/21 10:00:36;;;;;;;3.90;2.80;;;16.60;99.90;;;;;;5100445;28;20250;-91
2023/07/21 10:03:10;;;;;;;5.87;3.20;;;16.50;99.90;;;;;;5097057;28;20211;-90
2023/07/21 10:05:41;;;;;;;4.57;3.00;;;16.40;99.90;;;;;;5100746;28;20206;-90
2023/07/21 10:08:12;;;;;;;4.40;3.03;;;16.40;99.90;;;;;;5099679;28;20198;-90
2023/07/21 10:10:43;;;;;;;4.87;2.67;;;16.40;99.90;;;;;;5097836;28;20716;-91
2023/07/21 10:13:14;;;;;;;5.40;3.10;;;16.30;99.90;;;;;;5097764;28;20205;-90
2023/07/21 10:15:49;;;;;;;5.27;2.67;;;16.20;99.90;;;;;;5097729;28;20210;-90
2023/07/21 10:18:22;;;;;;;3.33;3.00;;;16.20;99.90;;;;;;5098752;28;20210;-90
2023/07/21 10:20:55;;;;;;;6.40;3.17;;;16.20;99.90;;;;;;5097513;28;20580;-88
2023/07/21 10:23:27;;;;;;;5.20;2.90;;;16.20;99.90;;;;;;5096437;28;20199;-89
2023/07/21 10:26:07;;;;;;;5.20;2.87;;;16.20;99.90;;;;;;5098213;28;20301;-90
2023/07/21 10:28:43;;;;;;;8.33;3.30;;;16.20;99.90;;;;;;5096028;28;20252;-90
2023/07/21 10:31:42;;;;;;;4.27;3.10;;;16.10;99.90;;;;;;5096163;28;20280;-90
2023/07/21 10:34:16;;;;;;;4.77;3.37;;;16.10;99.90;;;;;;5096598;28;20191;-91
2023/07/21 10:36:57;;;;;;;4.57;3.20;;;16.10;99.90;;;;;;5096193;28;20207;-90
2023/07/21 10:39:31;;;;;;;4.97;3.27;;;16.00;99.90;;;;;;5095456;28;20217;-90
2023/07/21 10:42:03;;;;;;;8.20;3.70;;;16.00;99.90;;;;;;5094426;28;20203;-91
2023/07/21 10:44:35;;;;;;;4.63;3.23;;;15.90;99.90;;;;;;5097530;28;20211;-90
2023/07/21 10:47:07;;;;;;;5.87;3.13;;;15.90;99.90;;;;;;5096653;28;20203;-90
2023/07/21 10:49:40;;;;;;;3.87;3.10;;;15.80;99.90;;;;;;5096199;28;20206;-91
2023/07/21 10:52:11;;;;;;;5.73;3.30;;;15.90;99.90;;;;;;5095556;28;20234;-91
2023/07/21 10:54:42;;;;;;;5.60;3.37;;;15.80;99.90;;;;;;5096977;28;20206;-92
2023/07/21 10:57:13;;;;;;;5.33;3.67;;;15.90;99.90;;;;;;5096193;28;20741;-91
2023/07/21 10:59:44;;;;;;;5.80;3.20;;;15.90;99.90;;;;;;5096455;28;20211;-91
2023/07/21 11:02:15;;;;;;;4.80;2.97;;;16.00;99.90;;;;;;5098587;28;20267;-91
2023/07/21 11:04:48;;;;;;;3.93;3.10;;;16.00;99.90;;;;;;5114349;28;20190;-90
2023/07/21 11:07:18;;;;;;;5.23;3.90;;;16.10;99.90;;;;;;5117569;28;20222;-91
2023/07/21 11:09:51;;;;;;;7.60;3.73;;;16.10;99.90;;;;;;5109941;28;20286;-91
2023/07/21 11:12:22;;;;;;;7.70;3.90;;;16.00;99.90;;;;;;5097058;28;20233;-89
2023/07/21 11:14:56;;;;;;;4.60;3.80;;;15.90;99.90;;;;;;5097290;28;20289;-92
2023/07/21 11:17:27;;;;;;;5.67;3.70;;;15.90;99.90;;;;;;5096382;28;20250;-91
2023/07/21 11:20:08;;;;;;;5.40;3.70;;;16.00;99.90;;;;;;5097293;28;20207;-90
2023/07/21 11:22:39;;;;;;;5.47;3.80;;;16.00;99.90;;;;;;5095214;28;20206;-90
2023/07/21 11:25:11;;;;;;;6.73;3.90;;;16.00;99.90;;;;;;5096105;28;20655;-90
2023/07/21 11:27:44;;;;;;;6.50;3.57;;;15.90;99.90;;;;;;5095993;28;20219;-90
2023/07/21 11:30:19;;;;;;;5.00;3.97;;;15.90;99.90;;;;;;5096572;28;20207;-89
2023/07/21 11:32:50;;;;;;;5.60;3.87;;;15.90;99.90;;;;;;5094742;28;20717;-90
2023/07/21 11:35:32;;;;;;;4.80;3.83;;;15.90;99.90;;;;;;5095110;28;20228;-90
2023/07/21 11:38:03;;;;;;;4.60;3.93;;;15.90;99.90;;;;;;5095242;28;20203;-90
2023/07/21 11:40:35;;;;;;;6.77;4.23;;;15.90;99.90;;;;;;5094995;28;20213;-90
2023/07/21 11:43:09;;;;;;;6.03;3.90;;;16.00;99.90;;;;;;5094840;28;20211;-89
2023/07/21 11:45:41;;;;;;;5.63;3.83;;;15.90;99.90;;;;;;5095040;28;20693;-91
2023/07/21 11:48:17;;;;;;;5.90;3.50;;;16.00;99.90;;;;;;5099190;28;20209;-89
2023/07/21 11:50:53;;;;;;;7.00;3.67;;;16.00;99.90;;;;;;5094488;28;20304;-92
2023/07/21 11:53:26;;;;;;;3.87;3.10;;;16.10;99.90;;;;;;5095149;28;20591;-89
2023/07/21 11:55:57;;;;;;;6.00;3.57;;;16.20;99.90;;;;;;5095839;28;20261;-90
2023/07/21 11:58:28;;;;;;;3.23;2.80;;;16.10;99.90;;;;;;5094998;28;20577;-91
2023/07/21 12:01:01;;;;;;;4.30;3.10;;;16.20;99.90;;;;;;5094643;28;20199;-91
2023/07/21 12:03:32;;;;;;;4.87;3.50;;;16.30;99.90;;;;;;5095590;28;20207;-90
2023/07/21 12:06:05;;;;;;;4.57;3.87;;;16.30;99.90;;;;;;5095842;28;20209;-90
2023/07/21 12:08:36;;;;;;;6.23;4.10;;;16.30;99.90;;;;;;5095401;28;20281;-90
2023/07/21 12:11:07;;;;;;;5.60;3.57;;;16.20;99.90;;;;;;5094258;28;20213;-90
2023/07/21 12:13:38;;;;;;;4.87;3.53;;;16.10;99.90;;;;;;5094992;28;20234;-91
2023/07/21 12:16:11;;;;;;;5.10;4.10;;;16.00;99.90;;;;;;5094624;28;20213;-91
2023/07/21 12:18:42;;;;;;;5.67;3.83;;;16.00;99.90;;;;;;5095157;28;20615;-90
2023/07/21 12:21:17;;;;;;;3.70;3.13;;;16.00;99.90;;;;;;5094505;28;20235;-91
2023/07/21 12:23:48;;;;;;;5.10;3.83;;;16.00;99.90;;;;;;5095011;28;20213;-91
2023/07/21 12:26:19;;;;;;;4.40;4.00;;;16.10;99.90;;;;;;5094805;28;20213;-88
2023/07/21 12:28:51;;;;;;;5.80;3.97;;;16.00;99.90;;;;;;5095568;28;20198;-91
2023/07/21 12:31:22;;;;;;;4.33;3.93;;;16.00;99.90;;;;;;5094198;28;20207;-90
2023/07/21 12:33:54;;;;;;;4.40;3.83;;;16.00;99.90;;;;;;5094890;28;20581;-90
2023/07/21 12:36:26;;;;;;;3.80;3.47;;;15.90;99.90;;;;;;5096200;28;20571;-88
2023/07/21 12:38:57;;;;;;;6.50;4.00;;;15.90;99.90;;;;;;5095163;28;20235;-90
2023/07/21 12:41:28;;;;;;;5.17;4.00;;;15.90;99.90;;;;;;5094217;28;20203;-90
2023/07/21 12:43:59;;;;;;;5.40;4.03;;;16.00;99.90;;;;;;5094945;28;20211;-90
2023/07/21 12:46:30;;;;;;;7.03;4.27;;;15.90;99.90;;;;;;5095070;28;20627;-90
2023/07/21 12:49:01;;;;;;;6.30;4.23;;;15.80;99.90;;;;;;5094661;28;20250;-91
2023/07/21 12:51:33;;;;;;;4.77;3.80;;;15.90;99.90;;;;;;5094289;28;20215;-90
2023/07/21 12:54:04;;;;;;;6.23;3.93;;;16.00;99.90;;;;;;5094893;28;20234;-90
2023/07/21 12:56:35;;;;;;;6.00;4.10;;;16.10;99.90;;;;;;5094805;28;20207;-90
2023/07/21 12:59:06;;;;;;;5.37;4.87;;;16.20;99.90;;;;;;5093662;28;20689;-90
2023/07/21 13:01:37;;;;;;;6.03;4.77;;;16.10;99.90;;;;;;5093532;28;20750;-91
2023/07/21 13:04:08;;;;;;;5.33;4.60;;;16.10;99.90;;;;;;5097747;28;20214;-91
2023/07/21 13:06:51;;;;;;;5.43;4.80;;;16.20;99.90;;;;;;5098554;28;20218;-91
2023/07/21 13:09:23;;;;;;;6.10;4.77;;;16.20;99.90;;;;;;5098442;28;20271;-91